Ferryhill, United Kingdom
Current Conditions -  °F | °C
As of 4:50 PM on Tuesday 27 Jan 2015 (Local Time) from EGNV Reporting Station
Broken Clouds Broken Clouds  
Wind Chill: 41°   Ceiling: 2100
Heat Index: 46°   Visibility: 6mi
Dew Point: 37°   Wind: 13mph
Humidity: 71%   Direction: 240°WSW
Pressure: 30.09"   Gusts: NA
Location:  54.68°N, 1.55°W
Report Text: EGNV 271650Z 24011KT 9999 BKN021 08/03 Q1019
Loading
Personal Weather Stations






























Interactive Weather Map New forecast layout! Learn more

10-Day Weather Forecast

Advertisements
Track Severe Weather on mobile